Detall de PIREP

Printer-friendly versionPDF version

[2009/11/18 20:35:00]
Flight IATA:CT2311
Pilot Number:026
Company ICAO:CAT
Aircraft Type:DC85/A
PAX:136
Departing Airport: LIMC
Destination Airport: LIEA
Alternate Airport:LIEO
Online: VATSIM
Route:SRN UM858 CORSI
Flight Level:FL310
No Slew and time accel
No pause
Crash detect
Detect pilot in Cockpit between each 30 and 45 minutes
20:35 Zero fuel Weight: 186167 Lbs, Fuel Weight: 24003 Lbs
20:35 VATSIM:LIMC 181950Z VRB02KT 1500 BR BKN025 12/10 Q1027 NOSIG
20:35 VATSIM:LIEA 181950Z 01004KT 9999 FEW030 16/13 Q1024
20:35 VOICE CATALONIAN / IATA CT2311
20:54 Parking Brakes off
21:03 Take-off
21:03 Take off Weight: 209006 Lbs
21:03 Wind: 359º @ 000 Knots Heading: 348º
21:03 POS N45º 37´ 49´´ E008º 43´ 23´´
21:03 Gear Up: 172 Knots
21:03 Flaps:3 at 172 Knots
21:03 Flaps:2 at 182 Knots
21:04 Flaps:1 at 197 Knots
21:06 Flaps:0 at 222 Knots
21:13 TOC
21:13 Fuel Weight:
19113 Lb
21:14 TOD
21:14 Fuel Weight: 18817 Lb
21:15 TOC
21:15 Fuel Weight: 18743 Lb
21:18 Wind:022º@034 Knots Heading: 157º Ground Speed: 488 Knots Altitude 31338 ft
21:32 TOD
21:32 Fuel Weight: 14729 Lb
21:33 Wind:003º@005 Knots Heading: 176º Ground Speed: 471 Knots Altitude 30442 ft
21:48 Wind:050º@009 Knots Heading: 213º Ground Speed: 274 Knots Altitude 7844 ft
21:50 Flaps:1 at 265 Knots
21:50 Gear Down: 231 Knots
21:50 Flaps:2 at 218 Knots
21:51 Flaps:3 at 175 Knots
21:52 Flaps:4 at 180 Knots
21:52 Flaps:5 at 179 Knots
21:53 TouchDown:Rate -357 ft/min Speed: 136 Knots
21:53 VATSIM:LIEA 182120Z 05004KT 9999 FEW030 15/14 Q1024
21:53 Land
21:53 Wind:050º@004 Knots
21:53 Heading: 201º
21:53 Flight Duration: 00:50
21:53 Landing Weight: 198445 Lbs
21:53 POS N40º 37´ 38´´ E008º 17´ 17´´
21:56 Parking brakes on
21:56 Block to Block Duration: 01:02
21:
56 Final Fuel: 11979 Lbls
21:56 Spent Fuel: 12023 Lbls
21:56 Flight Length: 328 NM
21:56 TOD Land Length: 127 NM

Exportar CSV

Powered by Drupal - Modified by Danger4k